METAR Data

Data at: 0753 UTC 08 May 2021

KOKC 080652Z 17014KT 10SM SCT070 BKN150 OVC250 19/14 A2985 RMK AO2 SLP096 T01940144
KOKC 080552Z 17009KT 10SM OVC150 19/14 A2991 RMK AO2 SLP117 60000 T01940144 10256 20189 402670117 58005
KOKC 080452Z 28009KT 10SM SCT070 OVC110 20/15 A2998 RMK AO2 RAE03 SLP141 P0000 T02000150
KOKC 080352Z 18005KT 10SM -RA BKN048 BKN090 OVC110 21/14 A2997 RMK AO2 RAB30 PRESRR SLP137 P0000 T02110144
KOKC 080252Z 15008KT 10SM BKN140 OVC170 21/14 A2993 RMK AO2 SLP124 T02110144 53010

KOKC 080520Z 0806/0906 17011KT P6SM SCT100 BKN200 WS010/21045KT
  FM080700 18014G20KT P6SM SCT120 BKN250 WS015/21050KT
  FM081300 19015G30KT P6SM SCT250
  FM081700 19020G29KT P6SM SCT250